sensor_id;sensor_type;location;lat;lon;timestamp;temperature;humidity
5011;DHT22;2524;54.364;10.072;2022-07-29T09:28:11;20.20;99.90
5011;DHT22;2524;54.364;10.072;2022-07-29T09:31:04;20.20;99.90
5011;DHT22;2524;54.364;10.072;2022-07-29T09:33:34;20.40;99.90
5011;DHT22;2524;54.364;10.072;2022-07-29T09:36:05;20.50;99.90
5011;DHT22;2524;54.364;10.072;2022-07-29T09:38:32;20.50;99.90
5011;DHT22;2524;54.364;10.072;2022-07-29T09:41:00;20.60;99.90
5011;DHT22;2524;54.364;10.072;2022-07-29T09:43:26;20.60;99.90
5011;DHT22;2524;54.364;10.072;2022-07-29T09:45:52;20.70;99.90
5011;DHT22;2524;54.364;10.072;2022-07-29T09:48:24;20.70;99.90
5011;DHT22;2524;54.364;10.072;2022-07-29T09:50:51;20.60;99.90
5011;DHT22;2524;54.364;10.072;2022-07-29T09:53:37;20.60;99.90
5011;DHT22;2524;54.364;10.072;2022-07-29T09:56:04;20.50;99.90
5011;DHT22;2524;54.364;10.072;2022-07-29T09:58:30;20.40;99.90
5011;DHT22;2524;54.364;10.072;2022-07-29T10:00:56;20.40;99.90
5011;DHT22;2524;54.364;10.072;2022-07-29T10:03:22;20.40;99.90
5011;DHT22;2524;54.364;10.072;2022-07-29T10:06:10;20.40;99.90
5011;DHT22;2524;54.364;10.072;2022-07-29T10:08:37;20.50;99.90
5011;DHT22;2524;54.364;10.072;2022-07-29T10:11:12;20.70;99.90
5011;DHT22;2524;54.364;10.072;2022-07-29T10:13:38;20.70;99.90
5011;DHT22;2524;54.364;10.072;2022-07-29T10:16:06;20.80;99.90
5011;DHT22;2524;54.364;10.072;2022-07-29T10:18:32;20.80;99.90
5011;DHT22;2524;54.364;10.072;2022-07-29T10:20:58;20.80;99.90
5011;DHT22;2524;54.364;10.072;2022-07-29T10:23:27;20.80;99.90
5011;DHT22;2524;54.364;10.072;2022-07-29T10:25:53;20.80;99.90
5011;DHT22;2524;54.364;10.072;2022-07-29T10:28:19;20.80;99.90
5011;DHT22;2524;54.364;10.072;2022-07-29T10:30:45;20.70;99.90
5011;DHT22;2524;54.364;10.072;2022-07-29T10:33:18;20.80;99.90
5011;DHT22;2524;54.364;10.072;2022-07-29T10:38:43;20.70;99.90
5011;DHT22;2524;54.364;10.072;2022-07-29T10:44:02;20.70;99.90
5011;DHT22;2524;54.364;10.072;2022-07-29T10:46:37;20.80;99.90
5011;DHT22;2524;54.364;10.072;2022-07-29T10:49:35;20.90;99.90
5011;DHT22;2524;54.364;10.072;2022-07-29T10:52:06;20.80;99.90
5011;DHT22;2524;54.364;10.072;2022-07-29T10:54:36;20.80;99.90
5011;DHT22;2524;54.364;10.072;2022-07-29T10:59:39;20.90;99.90
5011;DHT22;2524;54.364;10.072;2022-07-29T11:05:13;21.20;99.90
5011;DHT22;2524;54.364;10.072;2022-07-29T11:10:25;21.60;99.90
5011;DHT22;2524;54.364;10.072;2022-07-29T11:12:51;21.70;99.90
5011;DHT22;2524;54.364;10.072;2022-07-29T11:15:21;21.80;99.90
5011;DHT22;2524;54.364;10.072;2022-07-29T11:23:36;22.20;98.30
5011;DHT22;2524;54.364;10.072;2022-07-29T11:26:19;22.10;97.20
5011;DHT22;2524;54.364;10.072;2022-07-29T11:31:36;22.10;97.20
5011;DHT22;2524;54.364;10.072;2022-07-29T11:34:28;22.10;96.70
5011;DHT22;2524;54.364;10.072;2022-07-29T11:40:08;22.20;95.40
5011;DHT22;2524;54.364;10.072;2022-07-29T11:47:28;22.20;94.20
5011;DHT22;2524;54.364;10.072;2022-07-29T11:49:58;22.10;94.00
5011;DHT22;2524;54.364;10.072;2022-07-29T11:52:33;22.10;93.60
5011;DHT22;2524;54.364;10.072;2022-07-29T11:55:01;22.10;93.90
5011;DHT22;2524;54.364;10.072;2022-07-29T11:57:28;22.10;93.80
5011;DHT22;2524;54.364;10.072;2022-07-29T11:59:55;22.10;93.70
5011;DHT22;2524;54.364;10.072;2022-07-29T12:02:23;22.10;94.00
5011;DHT22;2524;54.364;10.072;2022-07-29T12:04:53;22.10;94.10
5011;DHT22;2524;54.364;10.072;2022-07-29T12:07:26;22.20;94.30
5011;DHT22;2524;54.364;10.072;2022-07-29T12:09:52;22.30;94.50
5011;DHT22;2524;54.364;10.072;2022-07-29T12:12:19;22.40;95.00
5011;DHT22;2524;54.364;10.072;2022-07-29T12:14:45;22.60;95.30
5011;DHT22;2524;54.364;10.072;2022-07-29T12:17:30;22.80;95.60
5011;DHT22;2524;54.364;10.072;2022-07-29T12:19:58;22.90;95.40
5011;DHT22;2524;54.364;10.072;2022-07-29T12:22:34;22.90;94.90
5011;DHT22;2524;54.364;10.072;2022-07-29T12:25:08;22.90;94.80
5011;DHT22;2524;54.364;10.072;2022-07-29T12:27:35;22.80;94.50
5011;DHT22;2524;54.364;10.072;2022-07-29T12:30:03;22.70;94.80
5011;DHT22;2524;54.364;10.072;2022-07-29T12:32:37;22.60;94.70
5011;DHT22;2524;54.364;10.072;2022-07-29T12:35:09;22.60;94.50
5011;DHT22;2524;54.364;10.072;2022-07-29T12:37:36;22.50;94.40
5011;DHT22;2524;54.364;10.072;2022-07-29T12:40:04;22.40;94.50
5011;DHT22;2524;54.364;10.072;2022-07-29T12:42:30;22.30;94.50
5011;DHT22;2524;54.364;10.072;2022-07-29T12:44:56;22.30;94.40
5011;DHT22;2524;54.364;10.072;2022-07-29T12:47:22;22.20;93.80
5011;DHT22;2524;54.364;10.072;2022-07-29T12:49:49;22.10;93.90
5011;DHT22;2524;54.364;10.072;2022-07-29T12:52:31;22.00;93.80
5011;DHT22;2524;54.364;10.072;2022-07-29T12:54:57;22.00;94.00
5011;DHT22;2524;54.364;10.072;2022-07-29T12:57:24;22.00;94.00
5011;DHT22;2524;54.364;10.072;2022-07-29T13:00:09;22.00;94.00
5011;DHT22;2524;54.364;10.072;2022-07-29T13:02:38;22.00;93.70
5011;DHT22;2524;54.364;10.072;2022-07-29T13:05:05;21.90;93.30
5011;DHT22;2524;54.364;10.072;2022-07-29T13:07:32;21.90;93.30
5011;DHT22;2524;54.364;10.072;2022-07-29T13:10:17;21.90;93.30
5011;DHT22;2524;54.364;10.072;2022-07-29T13:15:32;21.80;93.20
5011;DHT22;2524;54.364;10.072;2022-07-29T13:17:58;21.80;93.10
5011;DHT22;2524;54.364;10.072;2022-07-29T13:20:25;21.90;93.10
5011;DHT22;2524;54.364;10.072;2022-07-29T13:22:53;22.00;93.30
5011;DHT22;2524;54.364;10.072;2022-07-29T13:25:29;22.00;93.40
5011;DHT22;2524;54.364;10.072;2022-07-29T13:27:56;22.10;93.30
5011;DHT22;2524;54.364;10.072;2022-07-29T13:30:22;22.20;92.90
5011;DHT22;2524;54.364;10.072;2022-07-29T13:32:49;22.20;92.20
5011;DHT22;2524;54.364;10.072;2022-07-29T13:35:15;22.20;92.30
5011;DHT22;2524;54.364;10.072;2022-07-29T13:37:40;22.10;92.20
5011;DHT22;2524;54.364;10.072;2022-07-29T13:40:10;22.10;92.20
5011;DHT22;2524;54.364;10.072;2022-07-29T13:42:36;22.10;92.10
5011;DHT22;2524;54.364;10.072;2022-07-29T13:45:02;22.10;92.20
5011;DHT22;2524;54.364;10.072;2022-07-29T13:47:28;22.10;92.00
5011;DHT22;2524;54.364;10.072;2022-07-29T13:49:54;22.00;92.10
5011;DHT22;2524;54.364;10.072;2022-07-29T13:52:20;22.00;91.90
5011;DHT22;2524;54.364;10.072;2022-07-29T13:54:46;22.00;91.70
5011;DHT22;2524;54.364;10.072;2022-07-29T13:57:12;21.90;91.40
5011;DHT22;2524;54.364;10.072;2022-07-29T13:59:39;21.90;91.10
5011;DHT22;2524;54.364;10.072;2022-07-29T14:02:04;21.80;90.70
5011;DHT22;2524;54.364;10.072;2022-07-29T14:04:31;21.80;90.80
5011;DHT22;2524;54.364;10.072;2022-07-29T14:06:56;21.80;90.90
5011;DHT22;2524;54.364;10.072;2022-07-29T14:09:22;21.80;90.10
5011;DHT22;2524;54.364;10.072;2022-07-29T14:11:48;21.70;90.30
5011;DHT22;2524;54.364;10.072;2022-07-29T14:14:16;21.80;90.50
5011;DHT22;2524;54.364;10.072;2022-07-29T14:16:42;21.70;90.80
5011;DHT22;2524;54.364;10.072;2022-07-29T14:19:07;21.70;90.30
5011;DHT22;2524;54.364;10.072;2022-07-29T14:21:33;21.70;90.20
5011;DHT22;2524;54.364;10.072;2022-07-29T14:23:59;21.70;89.70
5011;DHT22;2524;54.364;10.072;2022-07-29T14:26:25;21.70;90.00
5011;DHT22;2524;54.364;10.072;2022-07-29T14:28:51;21.70;89.60
5011;DHT22;2524;54.364;10.072;2022-07-29T14:31:16;21.70;89.10
5011;DHT22;2524;54.364;10.072;2022-07-29T14:33:42;21.70;89.00
5011;DHT22;2524;54.364;10.072;2022-07-29T14:36:08;21.70;89.10
5011;DHT22;2524;54.364;10.072;2022-07-29T14:38:35;21.70;88.50
5011;DHT22;2524;54.364;10.072;2022-07-29T14:41:01;21.70;88.20
5011;DHT22;2524;54.364;10.072;2022-07-29T14:43:26;21.70;88.40
5011;DHT22;2524;54.364;10.072;2022-07-29T14:45:52;21.70;88.00
5011;DHT22;2524;54.364;10.072;2022-07-29T14:48:18;21.70;88.10
5011;DHT22;2524;54.364;10.072;2022-07-29T14:50:43;21.70;87.50
5011;DHT22;2524;54.364;10.072;2022-07-29T14:53:09;21.70;87.50
5011;DHT22;2524;54.364;10.072;2022-07-29T14:55:35;21.80;87.30
5011;DHT22;2524;54.364;10.072;2022-07-29T14:58:00;21.80;87.70
5011;DHT22;2524;54.364;10.072;2022-07-29T15:00:26;21.90;87.40
5011;DHT22;2524;54.364;10.072;2022-07-29T15:02:52;21.90;87.60
5011;DHT22;2524;54.364;10.072;2022-07-29T15:05:18;21.90;87.40
5011;DHT22;2524;54.364;10.072;2022-07-29T15:07:43;22.00;87.20
5011;DHT22;2524;54.364;10.072;2022-07-29T15:10:09;22.00;86.80
5011;DHT22;2524;54.364;10.072;2022-07-29T15:12:35;22.10;86.90
5011;DHT22;2524;54.364;10.072;2022-07-29T15:15:00;22.20;85.90
5011;DHT22;2524;54.364;10.072;2022-07-29T15:17:26;22.20;86.00
5011;DHT22;2524;54.364;10.072;2022-07-29T15:19:52;22.20;85.70
5011;DHT22;2524;54.364;10.072;2022-07-29T15:22:17;22.30;86.10
5011;DHT22;2524;54.364;10.072;2022-07-29T15:24:43;22.30;85.20
5011;DHT22;2524;54.364;10.072;2022-07-29T15:27:09;22.30;84.90
5011;DHT22;2524;54.364;10.072;2022-07-29T15:29:40;22.30;85.00
5011;DHT22;2524;54.364;10.072;2022-07-29T15:32:06;22.30;85.50
5011;DHT22;2524;54.364;10.072;2022-07-29T15:34:32;22.30;86.10
5011;DHT22;2524;54.364;10.072;2022-07-29T15:36:57;22.30;86.50
5011;DHT22;2524;54.364;10.072;2022-07-29T15:39:23;22.30;86.60
5011;DHT22;2524;54.364;10.072;2022-07-29T15:41:49;22.40;86.90
5011;DHT22;2524;54.364;10.072;2022-07-29T15:44:14;22.40;87.10
5011;DHT22;2524;54.364;10.072;2022-07-29T15:46:40;22.40;86.40
5011;DHT22;2524;54.364;10.072;2022-07-29T15:49:24;22.40;86.40
5011;DHT22;2524;54.364;10.072;2022-07-29T15:51:59;22.30;86.10
5011;DHT22;2524;54.364;10.072;2022-07-29T15:54:26;22.30;86.10
5011;DHT22;2524;54.364;10.072;2022-07-29T15:56:52;22.20;86.10
5011;DHT22;2524;54.364;10.072;2022-07-29T15:59:18;22.20;86.30
5011;DHT22;2524;54.364;10.072;2022-07-29T16:01:44;22.20;86.70
5011;DHT22;2524;54.364;10.072;2022-07-29T16:04:09;22.20;86.30
5011;DHT22;2524;54.364;10.072;2022-07-29T16:06:35;22.20;86.40
5011;DHT22;2524;54.364;10.072;2022-07-29T16:09:00;22.10;86.60
5011;DHT22;2524;54.364;10.072;2022-07-29T16:11:26;22.10;86.50
5011;DHT22;2524;54.364;10.072;2022-07-29T16:13:52;22.10;86.40
5011;DHT22;2524;54.364;10.072;2022-07-29T16:16:17;22.10;86.20
5011;DHT22;2524;54.364;10.072;2022-07-29T16:18:44;22.10;85.70
5011;DHT22;2524;54.364;10.072;2022-07-29T16:21:11;22.10;86.00
5011;DHT22;2524;54.364;10.072;2022-07-29T16:23:37;22.10;86.00
5011;DHT22;2524;54.364;10.072;2022-07-29T16:26:02;22.10;85.70
5011;DHT22;2524;54.364;10.072;2022-07-29T16:28:28;22.20;86.00
5011;DHT22;2524;54.364;10.072;2022-07-29T16:30:55;22.20;86.30
5011;DHT22;2524;54.364;10.072;2022-07-29T16:33:21;22.30;86.50
5011;DHT22;2524;54.364;10.072;2022-07-29T16:35:50;22.20;86.50
5011;DHT22;2524;54.364;10.072;2022-07-29T16:38:16;22.30;87.00
5011;DHT22;2524;54.364;10.072;2022-07-29T16:40:42;22.30;87.20
5011;DHT22;2524;54.364;10.072;2022-07-29T16:43:08;22.30;87.40
5011;DHT22;2524;54.364;10.072;2022-07-29T16:45:34;22.20;88.00
5011;DHT22;2524;54.364;10.072;2022-07-29T16:48:00;22.20;88.00
5011;DHT22;2524;54.364;10.072;2022-07-29T16:50:27;22.20;88.70
5011;DHT22;2524;54.364;10.072;2022-07-29T16:52:53;22.20;89.00
5011;DHT22;2524;54.364;10.072;2022-07-29T16:55:19;22.20;89.60
5011;DHT22;2524;54.364;10.072;2022-07-29T16:57:45;22.10;89.50
5011;DHT22;2524;54.364;10.072;2022-07-29T17:00:13;22.10;90.00
5011;DHT22;2524;54.364;10.072;2022-07-29T17:02:39;22.10;90.10
5011;DHT22;2524;54.364;10.072;2022-07-29T17:05:08;22.10;90.40
5011;DHT22;2524;54.364;10.072;2022-07-29T17:07:35;22.10;90.80
5011;DHT22;2524;54.364;10.072;2022-07-29T17:10:00;22.00;91.10
5011;DHT22;2524;54.364;10.072;2022-07-29T17:12:31;22.00;91.50
5011;DHT22;2524;54.364;10.072;2022-07-29T17:14:57;21.90;91.50
5011;DHT22;2524;54.364;10.072;2022-07-29T17:17:22;21.90;91.70
5011;DHT22;2524;54.364;10.072;2022-07-29T17:19:48;21.90;92.30
5011;DHT22;2524;54.364;10.072;2022-07-29T17:22:14;21.80;92.30
5011;DHT22;2524;54.364;10.072;2022-07-29T17:24:39;21.80;92.70
5011;DHT22;2524;54.364;10.072;2022-07-29T17:27:05;21.80;92.50
5011;DHT22;2524;54.364;10.072;2022-07-29T17:29:31;21.70;92.80
5011;DHT22;2524;54.364;10.072;2022-07-29T17:31:59;21.70;92.90
5011;DHT22;2524;54.364;10.072;2022-07-29T17:34:25;21.70;93.50
5011;DHT22;2524;54.364;10.072;2022-07-29T17:36:51;21.70;93.90
5011;DHT22;2524;54.364;10.072;2022-07-29T17:39:16;21.70;94.30
5011;DHT22;2524;54.364;10.072;2022-07-29T17:41:42;21.70;94.50
5011;DHT22;2524;54.364;10.072;2022-07-29T17:44:10;21.60;94.60
5011;DHT22;2524;54.364;10.072;2022-07-29T17:46:35;21.60;94.50
5011;DHT22;2524;54.364;10.072;2022-07-29T17:49:01;21.60;94.80
5011;DHT22;2524;54.364;10.072;2022-07-29T17:51:28;21.50;95.70
5011;DHT22;2524;54.364;10.072;2022-07-29T17:53:53;21.50;95.40
5011;DHT22;2524;54.364;10.072;2022-07-29T17:56:20;21.40;95.30
5011;DHT22;2524;54.364;10.072;2022-07-29T17:58:45;21.40;96.10
5011;DHT22;2524;54.364;10.072;2022-07-29T18:01:15;21.40;96.00
5011;DHT22;2524;54.364;10.072;2022-07-29T18:03:40;21.30;96.30
5011;DHT22;2524;54.364;10.072;2022-07-29T18:06:06;21.20;96.90
5011;DHT22;2524;54.364;10.072;2022-07-29T18:08:34;21.20;96.70
5011;DHT22;2524;54.364;10.072;2022-07-29T18:11:00;21.10;96.90
5011;DHT22;2524;54.364;10.072;2022-07-29T18:13:26;21.10;97.40
5011;DHT22;2524;54.364;10.072;2022-07-29T18:15:51;21.00;97.60
5011;DHT22;2524;54.364;10.072;2022-07-29T18:18:17;21.00;97.50
5011;DHT22;2524;54.364;10.072;2022-07-29T18:20:43;21.00;97.90
5011;DHT22;2524;54.364;10.072;2022-07-29T18:23:10;20.90;97.90
5011;DHT22;2524;54.364;10.072;2022-07-29T18:25:36;20.90;98.20
5011;DHT22;2524;54.364;10.072;2022-07-29T18:28:02;20.80;98.10
5011;DHT22;2524;54.364;10.072;2022-07-29T18:30:28;20.90;98.50
5011;DHT22;2524;54.364;10.072;2022-07-29T18:32:55;20.80;98.70
5011;DHT22;2524;54.364;10.072;2022-07-29T18:35:21;20.80;98.80
5011;DHT22;2524;54.364;10.072;2022-07-29T18:37:46;20.80;98.70
5011;DHT22;2524;54.364;10.072;2022-07-29T18:40:12;20.80;99.10
5011;DHT22;2524;54.364;10.072;2022-07-29T18:42:38;20.80;99.10
5011;DHT22;2524;54.364;10.072;2022-07-29T18:45:06;20.80;99.70
5011;DHT22;2524;54.364;10.072;2022-07-29T18:47:32;20.70;99.50
5011;DHT22;2524;54.364;10.072;2022-07-29T18:49:57;20.70;99.80
5011;DHT22;2524;54.364;10.072;2022-07-29T18:52:23;20.70;99.90
5011;DHT22;2524;54.364;10.072;2022-07-29T18:54:48;20.70;99.90
5011;DHT22;2524;54.364;10.072;2022-07-29T18:57:14;20.70;99.90
5011;DHT22;2524;54.364;10.072;2022-07-29T18:59:39;20.70;99.90
5011;DHT22;2524;54.364;10.072;2022-07-29T19:02:06;20.70;99.90
5011;DHT22;2524;54.364;10.072;2022-07-29T19:04:31;20.60;99.90
5011;DHT22;2524;54.364;10.072;2022-07-29T19:06:57;20.60;99.90
5011;DHT22;2524;54.364;10.072;2022-07-29T19:09:27;20.50;99.90
5011;DHT22;2524;54.364;10.072;2022-07-29T19:11:52;20.50;99.90
5011;DHT22;2524;54.364;10.072;2022-07-29T19:14:18;20.50;99.90
5011;DHT22;2524;54.364;10.072;2022-07-29T19:16:44;20.50;99.90
5011;DHT22;2524;54.364;10.072;2022-07-29T19:19:09;20.40;99.90
5011;DHT22;2524;54.364;10.072;2022-07-29T19:21:35;20.40;99.90
5011;DHT22;2524;54.364;10.072;2022-07-29T19:24:00;20.30;99.90
5011;DHT22;2524;54.364;10.072;2022-07-29T19:26:26;20.30;99.90
5011;DHT22;2524;54.364;10.072;2022-07-29T19:28:52;20.20;99.90
5011;DHT22;2524;54.364;10.072;2022-07-29T19:31:17;20.20;99.90
5011;DHT22;2524;54.364;10.072;2022-07-29T19:33:43;20.20;99.90
5011;DHT22;2524;54.364;10.072;2022-07-29T19:36:08;20.10;99.90
5011;DHT22;2524;54.364;10.072;2022-07-29T19:38:34;20.10;99.90
5011;DHT22;2524;54.364;10.072;2022-07-29T19:41:00;20.10;99.90
5011;DHT22;2524;54.364;10.072;2022-07-29T19:43:25;20.00;99.90
5011;DHT22;2524;54.364;10.072;2022-07-29T19:45:51;20.00;99.90
5011;DHT22;2524;54.364;10.072;2022-07-29T19:48:16;20.00;99.90
5011;DHT22;2524;54.364;10.072;2022-07-29T19:50:42;19.90;99.90
5011;DHT22;2524;54.364;10.072;2022-07-29T19:53:08;19.90;99.90
5011;DHT22;2524;54.364;10.072;2022-07-29T19:55:34;19.90;99.90
5011;DHT22;2524;54.364;10.072;2022-07-29T19:58:00;20.00;99.90
5011;DHT22;2524;54.364;10.072;2022-07-29T20:00:27;19.90;99.90
5011;DHT22;2524;54.364;10.072;2022-07-29T20:02:53;19.80;99.90
5011;DHT22;2524;54.364;10.072;2022-07-29T20:05:18;19.80;99.90
5011;DHT22;2524;54.364;10.072;2022-07-29T20:07:44;19.80;99.90
5011;DHT22;2524;54.364;10.072;2022-07-29T20:10:12;19.80;99.90
5011;DHT22;2524;54.364;10.072;2022-07-29T20:12:37;19.90;99.90
5011;DHT22;2524;54.364;10.072;2022-07-29T20:15:04;19.80;99.90
5011;DHT22;2524;54.364;10.072;2022-07-29T20:17:31;19.70;99.90
5011;DHT22;2524;54.364;10.072;2022-07-29T20:19:57;19.70;99.90
5011;DHT22;2524;54.364;10.072;2022-07-29T20:22:24;19.70;99.90
5011;DHT22;2524;54.364;10.072;2022-07-29T20:24:50;19.80;99.90
5011;DHT22;2524;54.364;10.072;2022-07-29T20:27:15;19.70;99.90
5011;DHT22;2524;54.364;10.072;2022-07-29T20:29:41;19.70;99.90
5011;DHT22;2524;54.364;10.072;2022-07-29T20:32:07;19.70;99.90
5011;DHT22;2524;54.364;10.072;2022-07-29T20:34:33;19.70;99.90
5011;DHT22;2524;54.364;10.072;2022-07-29T20:36:58;19.70;99.90
5011;DHT22;2524;54.364;10.072;2022-07-29T20:39:25;19.70;99.90
5011;DHT22;2524;54.364;10.072;2022-07-29T20:41:51;19.70;99.90
5011;DHT22;2524;54.364;10.072;2022-07-29T20:44:17;19.60;99.90
5011;DHT22;2524;54.364;10.072;2022-07-29T20:46:47;19.70;99.90
5011;DHT22;2524;54.364;10.072;2022-07-29T20:49:13;19.60;99.90
5011;DHT22;2524;54.364;10.072;2022-07-29T20:51:39;19.60;99.90
5011;DHT22;2524;54.364;10.072;2022-07-29T20:54:04;19.60;99.90
5011;DHT22;2524;54.364;10.072;2022-07-29T20:56:30;19.60;99.90
5011;DHT22;2524;54.364;10.072;2022-07-29T20:58:55;19.60;99.90
5011;DHT22;2524;54.364;10.072;2022-07-29T21:01:21;19.60;99.90
5011;DHT22;2524;54.364;10.072;2022-07-29T21:03:47;19.60;99.90
5011;DHT22;2524;54.364;10.072;2022-07-29T21:06:12;19.60;99.90
5011;DHT22;2524;54.364;10.072;2022-07-29T21:08:40;19.50;99.90
5011;DHT22;2524;54.364;10.072;2022-07-29T21:11:06;19.50;99.90
5011;DHT22;2524;54.364;10.072;2022-07-29T21:13:31;19.50;99.90
5011;DHT22;2524;54.364;10.072;2022-07-29T21:16:03;19.50;99.90
5011;DHT22;2524;54.364;10.072;2022-07-29T21:18:33;19.50;99.90
5011;DHT22;2524;54.364;10.072;2022-07-29T21:21:03;19.50;99.90
5011;DHT22;2524;54.364;10.072;2022-07-29T21:23:29;19.50;99.90
5011;DHT22;2524;54.364;10.072;2022-07-29T21:25:56;19.50;99.90
5011;DHT22;2524;54.364;10.072;2022-07-29T21:28:22;19.50;99.90
5011;DHT22;2524;54.364;10.072;2022-07-29T21:30:53;19.50;99.90
5011;DHT22;2524;54.364;10.072;2022-07-29T21:33:19;19.50;99.90
5011;DHT22;2524;54.364;10.072;2022-07-29T21:35:44;19.50;99.90
5011;DHT22;2524;54.364;10.072;2022-07-29T21:38:10;19.40;99.90
5011;DHT22;2524;54.364;10.072;2022-07-29T21:40:36;19.40;99.90
5011;DHT22;2524;54.364;10.072;2022-07-29T21:43:01;19.40;99.90
5011;DHT22;2524;54.364;10.072;2022-07-29T21:45:27;19.40;99.90
5011;DHT22;2524;54.364;10.072;2022-07-29T21:47:53;19.40;99.90
5011;DHT22;2524;54.364;10.072;2022-07-29T21:50:18;19.40;99.90
5011;DHT22;2524;54.364;10.072;2022-07-29T21:52:44;19.40;99.90
5011;DHT22;2524;54.364;10.072;2022-07-29T21:55:09;19.40;99.90
5011;DHT22;2524;54.364;10.072;2022-07-29T21:57:35;19.40;99.90
5011;DHT22;2524;54.364;10.072;2022-07-29T22:00:00;19.40;99.90
5011;DHT22;2524;54.364;10.072;2022-07-29T22:02:26;19.50;99.90
5011;DHT22;2524;54.364;10.072;2022-07-29T22:04:52;19.50;99.90
5011;DHT22;2524;54.364;10.072;2022-07-29T22:07:17;19.40;99.90
5011;DHT22;2524;54.364;10.072;2022-07-29T22:09:43;19.40;99.90
5011;DHT22;2524;54.364;10.072;2022-07-29T22:12:08;19.50;99.90
5011;DHT22;2524;54.364;10.072;2022-07-29T22:14:34;19.40;99.90
5011;DHT22;2524;54.364;10.072;2022-07-29T22:17:00;19.40;99.90
5011;DHT22;2524;54.364;10.072;2022-07-29T22:19:25;19.40;99.90
5011;DHT22;2524;54.364;10.072;2022-07-29T22:21:51;19.40;99.90
5011;DHT22;2524;54.364;10.072;2022-07-29T22:24:16;19.40;99.90
5011;DHT22;2524;54.364;10.072;2022-07-29T22:26:42;19.50;99.90
5011;DHT22;2524;54.364;10.072;2022-07-29T22:29:07;19.50;99.90
5011;DHT22;2524;54.364;10.072;2022-07-29T22:31:33;19.40;99.90
5011;DHT22;2524;54.364;10.072;2022-07-29T22:33:59;19.40;99.90
5011;DHT22;2524;54.364;10.072;2022-07-29T22:36:25;19.40;99.90
5011;DHT22;2524;54.364;10.072;2022-07-29T22:38:51;19.40;99.90
5011;DHT22;2524;54.364;10.072;2022-07-29T22:41:16;19.40;99.90
5011;DHT22;2524;54.364;10.072;2022-07-29T22:43:42;19.40;99.90
5011;DHT22;2524;54.364;10.072;2022-07-29T22:46:09;19.30;99.90
5011;DHT22;2524;54.364;10.072;2022-07-29T22:48:34;19.30;99.90
5011;DHT22;2524;54.364;10.072;2022-07-29T22:51:00;19.30;99.90
5011;DHT22;2524;54.364;10.072;2022-07-29T22:53:25;19.30;99.90
5011;DHT22;2524;54.364;10.072;2022-07-29T22:55:51;19.30;99.90
5011;DHT22;2524;54.364;10.072;2022-07-29T22:58:16;19.30;99.90
5011;DHT22;2524;54.364;10.072;2022-07-29T23:00:42;19.30;99.90
5011;DHT22;2524;54.364;10.072;2022-07-29T23:03:08;19.30;99.90
5011;DHT22;2524;54.364;10.072;2022-07-29T23:05:33;19.30;99.90
5011;DHT22;2524;54.364;10.072;2022-07-29T23:07:59;19.30;99.90
5011;DHT22;2524;54.364;10.072;2022-07-29T23:10:25;19.20;99.90
5011;DHT22;2524;54.364;10.072;2022-07-29T23:12:50;19.30;99.90
5011;DHT22;2524;54.364;10.072;2022-07-29T23:15:16;19.20;99.90
5011;DHT22;2524;54.364;10.072;2022-07-29T23:17:42;19.20;99.90
5011;DHT22;2524;54.364;10.072;2022-07-29T23:20:07;19.30;99.90
5011;DHT22;2524;54.364;10.072;2022-07-29T23:22:34;19.30;99.90
5011;DHT22;2524;54.364;10.072;2022-07-29T23:25:00;19.30;99.90
5011;DHT22;2524;54.364;10.072;2022-07-29T23:27:25;19.30;99.90
5011;DHT22;2524;54.364;10.072;2022-07-29T23:29:51;19.30;99.90
5011;DHT22;2524;54.364;10.072;2022-07-29T23:32:17;19.30;99.90
5011;DHT22;2524;54.364;10.072;2022-07-29T23:34:42;19.30;99.90
5011;DHT22;2524;54.364;10.072;2022-07-29T23:37:08;19.20;99.90
5011;DHT22;2524;54.364;10.072;2022-07-29T23:39:33;19.20;99.90
5011;DHT22;2524;54.364;10.072;2022-07-29T23:41:59;19.20;99.90
5011;DHT22;2524;54.364;10.072;2022-07-29T23:44:24;19.20;99.90
5011;DHT22;2524;54.364;10.072;2022-07-29T23:46:50;19.20;99.90
5011;DHT22;2524;54.364;10.072;2022-07-29T23:49:15;19.20;99.90
5011;DHT22;2524;54.364;10.072;2022-07-29T23:51:41;19.20;99.90
5011;DHT22;2524;54.364;10.072;2022-07-29T23:54:07;19.20;99.90
5011;DHT22;2524;54.364;10.072;2022-07-29T23:56:32;19.20;99.90
5011;DHT22;2524;54.364;10.072;2022-07-29T23:58:58;19.20;99.90
